createdAt,value
2023-03-18T00:01:01.640Z,65.80
2023-03-18T00:06:06.335Z,66.00
2023-03-18T00:11:09.945Z,65.90
2023-03-18T00:16:13.542Z,65.80
2023-03-18T00:21:16.388Z,66.00
2023-03-18T00:26:18.521Z,66.10
2023-03-18T00:31:22.133Z,66.10
2023-03-18T00:36:24.277Z,66.30
2023-03-18T00:41:27.772Z,66.20
2023-03-18T00:46:33.644Z,66.50
2023-03-18T00:51:37.516Z,66.80
2023-03-18T00:56:40.862Z,66.40
2023-03-18T01:01:44.540Z,66.50
2023-03-18T01:06:46.663Z,66.60
2023-03-18T01:11:48.788Z,66.20
2023-03-18T01:16:52.466Z,66.40
2023-03-18T01:21:54.666Z,66.40
2023-03-18T01:26:56.801Z,66.50
2023-03-18T01:32:00.445Z,66.50
2023-03-18T01:37:02.694Z,66.60
2023-03-18T01:42:05.185Z,66.60
2023-03-18T01:47:09.781Z,66.80
2023-03-18T01:52:16.577Z,66.90
2023-03-18T01:57:20.577Z,67.10
2023-03-18T02:02:25.241Z,66.90
2023-03-18T02:07:30.417Z,67.10
2023-03-18T02:12:35.437Z,67.20
2023-03-18T02:17:42.000Z,67.10
2023-03-18T02:22:48.860Z,67.40
2023-03-18T02:27:56.748Z,67.40
2023-03-18T02:33:00.184Z,67.50
2023-03-18T02:38:03.093Z,67.50
2023-03-18T02:43:22.809Z,67.50
2023-03-18T02:48:30.668Z,68.50
2023-03-18T02:53:32.836Z,68.00
2023-03-18T02:58:37.023Z,67.90
2023-03-18T03:03:39.879Z,68.20
2023-03-18T03:08:41.994Z,69.20
2023-03-18T03:13:45.850Z,68.30
2023-03-18T03:18:47.948Z,68.40
2023-03-18T03:23:50.191Z,68.60
2023-03-18T03:28:53.836Z,68.90
2023-03-18T03:33:56.028Z,69.10
2023-03-18T03:38:58.147Z,69.20
2023-03-18T03:44:01.736Z,69.40
2023-03-18T03:49:03.957Z,69.60
2023-03-18T03:54:06.183Z,69.60
2023-03-18T03:59:10.060Z,69.60
2023-03-18T04:04:12.271Z,70.00
2023-03-18T04:09:14.541Z,69.90
2023-03-18T04:14:18.068Z,70.10
2023-03-18T04:19:20.172Z,70.30
2023-03-18T04:24:22.344Z,70.20
2023-03-18T04:29:25.900Z,70.30
2023-03-18T04:34:27.951Z,70.50
2023-03-18T04:39:30.070Z,70.60
2023-03-18T04:44:33.729Z,70.80
2023-03-18T04:49:36.261Z,71.30
2023-03-18T04:54:38.359Z,71.30
2023-03-18T04:59:41.945Z,71.60
2023-03-18T05:04:44.146Z,71.90
2023-03-18T05:09:46.456Z,72.00
2023-03-18T05:14:50.034Z,72.30
2023-03-18T05:19:52.166Z,72.60
2023-03-18T05:24:54.392Z,72.60
2023-03-18T05:29:58.120Z,72.70
2023-03-18T05:35:00.285Z,73.00
2023-03-18T05:40:02.404Z,73.10
2023-03-18T05:45:07.225Z,73.40
2023-03-18T05:50:10.633Z,73.50
2023-03-18T05:55:14.199Z,73.50
2023-03-18T06:00:18.549Z,73.60
2023-03-18T06:05:21.827Z,73.70
2023-03-18T06:10:25.271Z,73.70
2023-03-18T06:15:30.362Z,74.10
2023-03-18T06:20:32.643Z,74.50
2023-03-18T06:25:34.923Z,74.70
2023-03-18T06:30:38.469Z,75.10
2023-03-18T06:35:40.729Z,75.70
2023-03-18T06:40:43.176Z,75.60
2023-03-18T06:45:46.801Z,75.60
2023-03-18T06:50:49.019Z,75.70
2023-03-18T06:55:51.179Z,75.50
2023-03-18T07:00:54.693Z,75.40
2023-03-18T07:05:56.947Z,75.60
2023-03-18T07:10:59.129Z,75.70
2023-03-18T07:16:02.767Z,76.00
2023-03-18T07:21:05.353Z,76.40
2023-03-18T07:26:07.533Z,76.40
2023-03-18T07:31:11.097Z,76.50
2023-03-18T07:36:13.283Z,76.40
2023-03-18T07:41:15.425Z,76.00
2023-03-18T07:46:18.966Z,76.20
2023-03-18T07:51:21.411Z,76.40
2023-03-18T07:56:23.536Z,76.40
2023-03-18T08:01:27.772Z,76.80
2023-03-18T08:06:30.059Z,78.80
2023-03-18T08:11:52.578Z,79.80
2023-03-18T08:22:42.343Z,75.60
2023-03-18T08:27:44.465Z,73.20
2023-03-18T08:32:48.206Z,72.40
2023-03-18T08:37:50.460Z,72.50
2023-03-18T08:42:52.566Z,72.80
2023-03-18T08:47:56.133Z,73.20
2023-03-18T08:53:00.123Z,74.00
2023-03-18T08:58:03.838Z,74.80
2023-03-18T09:03:07.480Z,74.00
2023-03-18T09:08:09.766Z,74.00
2023-03-18T09:13:12.107Z,73.70
2023-03-18T09:18:15.921Z,73.70
2023-03-18T09:23:18.151Z,71.80
2023-03-18T09:28:20.604Z,70.60
2023-03-18T09:33:24.280Z,69.90
2023-03-18T09:38:26.538Z,69.50
2023-03-18T09:43:54.507Z,69.90
2023-03-18T09:49:25.565Z,70.00
2023-03-18T09:54:35.186Z,70.10
2023-03-18T09:59:41.626Z,69.80
2023-03-18T10:04:49.460Z,68.20
2023-03-18T10:09:55.481Z,66.40
2023-03-18T10:15:14.691Z,65.20
2023-03-18T10:20:22.633Z,64.50
2023-03-18T10:25:29.664Z,64.30
2023-03-18T10:30:35.253Z,64.70
2023-03-18T10:35:48.210Z,65.70
2023-03-18T10:40:50.499Z,66.00
2023-03-18T10:46:01.598Z,67.00
2023-03-18T10:51:12.845Z,66.70
2023-03-18T10:56:15.927Z,65.30
2023-03-18T11:01:22.956Z,65.00
2023-03-18T11:06:35.605Z,63.50
2023-03-18T11:11:40.737Z,62.30
2023-03-18T11:16:47.165Z,61.60
2023-03-18T11:22:00.946Z,61.20
2023-03-18T11:27:03.619Z,60.80
2023-03-18T11:32:22.994Z,60.40
2023-03-18T11:37:33.662Z,60.50
2023-03-18T11:42:39.600Z,61.20
2023-03-18T11:47:41.836Z,61.40
2023-03-18T11:52:51.813Z,62.00
2023-03-18T11:58:18.516Z,62.50
2023-03-18T12:03:36.892Z,62.50
2023-03-18T12:08:52.786Z,61.90
2023-03-18T12:14:04.426Z,60.20
2023-03-18T12:19:31.414Z,60.40
2023-03-18T12:24:52.944Z,59.90
2023-03-18T12:30:22.356Z,60.20
2023-03-18T12:35:40.277Z,60.90
2023-03-18T12:40:55.920Z,62.00
2023-03-18T12:46:03.852Z,61.40
2023-03-18T12:51:10.612Z,61.80
2023-03-18T12:56:18.657Z,60.70
2023-03-18T13:01:24.601Z,59.50
2023-03-18T13:06:34.777Z,59.80
2023-03-18T13:11:59.877Z,59.30
2023-03-18T13:17:03.041Z,59.00
2023-03-18T13:22:23.596Z,59.50
2023-03-18T13:28:04.534Z,59.40
2023-03-18T13:33:26.318Z,59.30
2023-03-18T13:38:52.170Z,59.60
2023-03-18T13:43:58.661Z,59.70
2023-03-18T13:49:02.848Z,59.80
2023-03-18T13:54:12.364Z,59.70
2023-03-18T13:59:47.441Z,59.60
2023-03-18T14:04:51.766Z,59.60
2023-03-18T14:10:18.800Z,60.00
2023-03-18T14:15:42.208Z,59.50
2023-03-18T14:20:44.922Z,57.80
2023-03-18T14:25:50.007Z,58.30
2023-03-18T14:31:35.465Z,58.30
2023-03-18T14:36:59.863Z,58.60
2023-03-18T14:42:06.017Z,58.70
2023-03-18T14:47:31.938Z,58.90
2023-03-18T14:52:43.226Z,58.70
2023-03-18T14:57:45.849Z,58.60
2023-03-18T15:02:54.386Z,58.50
2023-03-18T15:07:56.643Z,58.20
2023-03-18T15:13:01.720Z,58.30
2023-03-18T15:18:17.555Z,58.40
2023-03-18T15:23:28.321Z,58.90
2023-03-18T15:28:30.695Z,58.90
2023-03-18T15:33:37.551Z,59.10
2023-03-18T15:38:47.084Z,59.10
2023-03-18T15:43:51.297Z,58.90
2023-03-18T15:48:56.674Z,59.00
2023-03-18T15:54:04.391Z,59.10
2023-03-18T15:59:12.964Z,59.20
2023-03-18T16:04:18.447Z,59.30
2023-03-18T16:09:22.208Z,59.50
2023-03-18T16:14:28.764Z,59.60
2023-03-18T16:19:32.365Z,59.70
2023-03-18T16:24:34.499Z,59.40
2023-03-18T16:29:37.756Z,59.30
2023-03-18T16:34:41.284Z,59.50
2023-03-18T16:39:43.546Z,59.60
2023-03-18T16:44:45.653Z,60.00
2023-03-18T16:49:49.540Z,60.30
2023-03-18T16:54:51.705Z,61.00
2023-03-18T16:59:54.619Z,61.20
2023-03-18T17:04:58.442Z,61.30
2023-03-18T17:10:00.789Z,60.90
2023-03-18T17:15:04.306Z,60.70
2023-03-18T17:20:17.245Z,61.10
2023-03-18T17:25:19.557Z,62.30
2023-03-18T17:30:26.489Z,62.30
2023-03-18T17:35:30.199Z,62.90
2023-03-18T17:40:32.401Z,63.00
2023-03-18T17:45:35.611Z,63.00
2023-03-18T17:50:40.240Z,63.20
2023-03-18T17:55:42.343Z,63.30
2023-03-18T18:00:45.787Z,63.50
2023-03-18T18:05:49.692Z,63.70
2023-03-18T18:10:55.356Z,63.90
2023-03-18T18:15:57.600Z,64.10
2023-03-18T18:21:02.904Z,65.10
2023-03-18T18:26:07.292Z,66.90
2023-03-18T18:31:11.854Z,66.80
2023-03-18T18:36:15.653Z,67.70
2023-03-18T18:41:17.800Z,68.20
2023-03-18T18:46:19.998Z,67.40
2023-03-18T18:51:25.055Z,67.40
2023-03-18T18:56:33.056Z,68.60
2023-03-18T19:01:35.165Z,69.40
2023-03-18T19:06:38.764Z,69.40
2023-03-18T19:11:40.942Z,70.20
2023-03-18T19:16:43.074Z,70.30
2023-03-18T19:21:46.972Z,70.40
2023-03-18T19:26:49.037Z,70.10
2023-03-18T19:31:51.505Z,71.20
2023-03-18T19:36:56.529Z,71.30
2023-03-18T19:41:58.751Z,77.80
2023-03-18T19:47:00.866Z,75.10
2023-03-18T19:52:11.445Z,75.20
2023-03-18T19:57:16.863Z,75.80
2023-03-18T20:02:22.055Z,75.50
2023-03-18T20:07:27.661Z,75.30
2023-03-18T20:12:34.009Z,75.20
2023-03-18T20:17:39.718Z,74.90
2023-03-18T20:22:47.877Z,75.20
2023-03-18T20:27:50.449Z,75.20
2023-03-18T20:32:52.639Z,74.90
2023-03-18T20:37:58.276Z,75.00
2023-03-18T20:43:00.397Z,75.10
2023-03-18T20:48:02.571Z,77.50
2023-03-18T20:53:11.274Z,79.70
2023-03-18T20:58:16.227Z,77.90
2023-03-18T21:03:23.408Z,80.00
2023-03-18T21:08:28.178Z,80.80
2023-03-18T21:13:32.694Z,81.50
2023-03-18T21:18:34.910Z,82.70
2023-03-18T21:23:38.516Z,80.70
2023-03-18T21:28:40.672Z,82.50
2023-03-18T21:33:42.750Z,81.10
2023-03-18T21:38:46.413Z,81.60
2023-03-18T21:43:49.262Z,81.60
2023-03-18T21:48:51.497Z,83.90
2023-03-18T21:53:55.191Z,86.90
2023-03-18T21:58:57.321Z,85.20
2023-03-18T22:03:59.512Z,84.20
2023-03-18T22:09:03.142Z,84.30
2023-03-18T22:14:05.254Z,84.30
2023-03-18T22:19:07.420Z,84.80
2023-03-18T22:24:14.432Z,83.80
2023-03-18T22:29:17.193Z,84.70
2023-03-18T22:34:23.199Z,84.00
2023-03-18T22:39:26.765Z,86.40
2023-03-18T22:44:28.937Z,86.50
2023-03-18T22:49:31.064Z,90.00
2023-03-18T22:54:34.588Z,87.60
2023-03-18T22:59:36.842Z,87.20
2023-03-18T23:04:39.020Z,85.70
2023-03-18T23:09:56.117Z,90.10
2023-03-18T23:14:59.159Z,90.20
2023-03-18T23:20:01.332Z,90.30
2023-03-18T23:25:06.114Z,90.00
2023-03-18T23:30:09.704Z,88.60
2023-03-18T23:35:11.980Z,89.10
2023-03-18T23:40:15.907Z,88.50
2023-03-18T23:45:18.287Z,88.40
2023-03-18T23:50:20.584Z,87.80
2023-03-18T23:55:34.038Z,87.40
